Time;durP1;ratioP1;P1;durP2;ratioP2;P2;SDS_P1;SDS_P2;PMS_P1;PMS_P2;Temp;Humidity;BMP_temperature;BMP_pressure;BME280_temperature;BME280_humidity;BME280_pressure;Samples;Min_cycle;Max_cycle;Signal;HPM_P1;HPM_P2
2023/10/19 00:02:08;;;;;;;;;;;10.80;60.30;;;;;;4997751;28;82983;-42
2023/10/19 00:04:37;;;;;;;;;;;10.80;60.30;;;;;;4994770;28;82036;-42
2023/10/19 00:07:04;;;;;;;;;;;10.80;60.60;;;;;;4997691;28;83810;-42
2023/10/19 00:09:37;;;;;;;;;;;10.80;60.50;;;;;;4997245;28;82222;-43
2023/10/19 00:12:03;;;;;;;;;;;10.80;60.40;;;;;;4995111;28;82059;-42
2023/10/19 00:14:28;;;;;;;;;;;10.80;60.10;;;;;;4997648;28;82406;-42
2023/10/19 00:16:59;;;;;;;;;;;10.80;61.00;;;;;;4994428;28;84111;-42
2023/10/19 00:19:27;;;;;;;;;;;10.80;60.40;;;;;;4998094;28;82014;-42
2023/10/19 00:22:08;;;;;;;;;;;10.80;60.50;;;;;;4997190;28;83205;-42
2023/10/19 00:24:34;;;;;;;;;;;10.80;60.40;;;;;;4995708;28;82389;-42
2023/10/19 00:27:05;;;;;;;;;;;10.80;60.50;;;;;;4995678;28;82369;-43
2023/10/19 00:29:32;;;;;;;;;;;10.80;60.50;;;;;;4997046;28;83576;-43
2023/10/19 00:31:59;;;;;;;;;;;10.80;60.50;;;;;;4994258;28;82226;-42
2023/10/19 00:34:25;;;;;;;;;;;10.80;60.50;;;;;;4996905;28;83973;-42
2023/10/19 00:36:51;;;;;;;;;;;10.80;60.60;;;;;;4995604;28;82950;-42
2023/10/19 00:39:27;;;;;;;;;;;10.80;60.40;;;;;;4998061;28;82059;-43
2023/10/19 00:41:58;;;;;;;;;;;10.70;60.50;;;;;;4996002;28;83972;-42
2023/10/19 00:44:38;;;;;;;;;;;10.80;60.60;;;;;;4994979;28;82057;-42
2023/10/19 00:47:07;;;;;;;;;;;10.80;60.60;;;;;;4994368;28;82428;-42
2023/10/19 00:49:33;;;;;;;;;;;10.80;60.40;;;;;;4995806;28;84367;-43
2023/10/19 00:52:02;;;;;;;;;;;10.70;60.50;;;;;;4995254;28;82041;-43
2023/10/19 00:54:33;;;;;;;;;;;10.70;60.50;;;;;;4994429;28;81989;-42
2023/10/19 00:57:06;;;;;;;;;;;10.70;60.60;;;;;;4994890;28;83286;-43
2023/10/19 00:59:35;;;;;;;;;;;10.80;60.60;;;;;;4993492;28;81735;-43
2023/10/19 01:02:43;;;;;;;;;;;10.80;60.70;;;;;;4999063;28;82485;-42
2023/10/19 01:04:55;;;;;;;;;;;10.80;60.70;;;;;;4993848;28;82592;-42
2023/10/19 01:07:22;;;;;;;;;;;10.80;60.70;;;;;;4992893;28;82996;-42
2023/10/19 01:09:52;;;;;;;;;;;10.80;60.50;;;;;;4996196;28;84482;-42
2023/10/19 01:12:25;;;;;;;;;;;10.70;60.50;;;;;;4995339;28;82085;-42
2023/10/19 01:15:23;;;;;;;;;;;10.70;60.40;;;;;;4993675;28;83182;-43
2023/10/19 01:17:53;;;;;;;;;;;10.80;60.50;;;;;;4988433;28;84499;-42
2023/10/19 01:28:16;;;;;;;;;;;10.80;60.50;;;;;;4993962;28;82070;-42
2023/10/19 01:30:44;;;;;;;;;;;10.70;60.60;;;;;;4994844;28;83268;-42
2023/10/19 01:33:15;;;;;;;;;;;10.70;60.60;;;;;;4995092;28;83075;-42
2023/10/19 01:38:30;;;;;;;;;;;10.70;60.50;;;;;;4993859;28;82711;-42
2023/10/19 01:40:59;;;;;;;;;;;10.70;60.60;;;;;;4993484;28;82084;-42
2023/10/19 01:43:25;;;;;;;;;;;10.70;60.70;;;;;;4995528;28;82482;-42
2023/10/19 01:45:57;;;;;;;;;;;10.70;60.50;;;;;;4994987;28;82742;-43
2023/10/19 01:48:32;;;;;;;;;;;10.70;60.60;;;;;;4996287;28;82141;-42
2023/10/19 01:50:59;;;;;;;;;;;10.70;60.60;;;;;;4994705;28;82248;-42
2023/10/19 01:53:25;;;;;;;;;;;10.70;60.60;;;;;;4994739;28;82227;-42
2023/10/19 01:55:57;;;;;;;;;;;10.70;60.50;;;;;;4997934;28;82434;-42
2023/10/19 01:58:25;;;;;;;;;;;10.70;60.60;;;;;;4995681;28;84244;-43
2023/10/19 02:00:54;;;;;;;;;;;10.70;60.60;;;;;;4999255;28;81979;-42
2023/10/19 02:03:21;;;;;;;;;;;10.70;60.60;;;;;;4998250;28;82635;-42
2023/10/19 02:05:49;;;;;;;;;;;10.70;60.60;;;;;;4996592;28;84305;-42
2023/10/19 02:08:16;;;;;;;;;;;10.60;60.60;;;;;;4999753;28;82259;-44
2023/10/19 02:10:46;;;;;;;;;;;10.70;60.60;;;;;;4999102;28;83961;-42
2023/10/19 02:13:15;;;;;;;;;;;10.70;60.50;;;;;;4998202;28;82069;-42
2023/10/19 02:15:42;;;;;;;;;;;10.70;60.50;;;;;;4999001;28;84145;-42
2023/10/19 02:18:08;;;;;;;;;;;10.70;60.70;;;;;;4996424;28;83270;-44
2023/10/19 02:20:34;;;;;;;;;;;10.60;60.70;;;;;;4999310;28;82051;-42
2023/10/19 02:23:03;;;;;;;;;;;10.60;60.70;;;;;;4996126;28;82969;-42
2023/10/19 02:25:34;;;;;;;;;;;10.70;60.60;;;;;;4997784;28;82090;-43
2023/10/19 02:27:59;;;;;;;;;;;10.60;60.60;;;;;;4998463;28;82009;-42
2023/10/19 02:30:25;;;;;;;;;;;10.60;60.60;;;;;;4999147;28;82785;-42
2023/10/19 02:32:51;;;;;;;;;;;10.70;60.70;;;;;;4999167;28;82147;-42
2023/10/19 02:35:16;;;;;;;;;;;10.60;60.70;;;;;;4995917;28;82741;-43
2023/10/19 02:37:42;;;;;;;;;;;10.60;60.70;;;;;;4998665;28;82284;-42
2023/10/19 02:40:31;;;;;;;;;;;10.60;60.70;;;;;;4997840;28;81517;-43
2023/10/19 02:42:53;;;;;;;;;;;10.70;60.60;;;;;;4996363;28;82777;-42
2023/10/19 02:45:19;;;;;;;;;;;10.60;60.60;;;;;;4997777;28;82505;-42
2023/10/19 02:47:45;;;;;;;;;;;10.60;60.70;;;;;;4997060;28;82943;-42
2023/10/19 02:50:16;;;;;;;;;;;10.60;60.70;;;;;;4996558;28;84772;-42
2023/10/19 02:52:43;;;;;;;;;;;10.60;60.60;;;;;;5001597;28;84292;-43
2023/10/19 02:55:09;;;;;;;;;;;10.60;60.40;;;;;;4996121;28;83931;-42
2023/10/19 02:57:36;;;;;;;;;;;10.60;60.60;;;;;;4997603;28;84634;-42
2023/10/19 03:00:07;;;;;;;;;;;10.70;60.60;;;;;;4997435;28;82101;-42
2023/10/19 03:02:33;;;;;;;;;;;10.60;60.50;;;;;;4995991;28;82030;-42
2023/10/19 03:05:00;;;;;;;;;;;10.60;60.50;;;;;;4997600;28;84309;-42
2023/10/19 03:07:26;;;;;;;;;;;10.60;60.80;;;;;;4995503;28;82048;-43
2023/10/19 03:09:54;;;;;;;;;;;10.60;60.60;;;;;;4998020;28;82590;-43
2023/10/19 03:12:20;;;;;;;;;;;10.60;60.70;;;;;;4996297;28;85304;-42
2023/10/19 03:14:49;;;;;;;;;;;10.60;60.60;;;;;;4999181;28;82130;-43
2023/10/19 03:17:15;;;;;;;;;;;10.60;60.60;;;;;;4998610;28;82774;-43
2023/10/19 03:19:42;;;;;;;;;;;10.60;60.90;;;;;;4995414;28;82049;-42
2023/10/19 03:22:07;;;;;;;;;;;10.60;60.60;;;;;;4997967;28;82548;-42
2023/10/19 03:24:36;;;;;;;;;;;10.60;60.70;;;;;;4996582;28;82878;-42
2023/10/19 03:27:23;;;;;;;;;;;10.60;60.70;;;;;;4996169;28;82139;-42
2023/10/19 03:29:55;;;;;;;;;;;10.60;60.70;;;;;;4997719;28;82328;-43
2023/10/19 03:32:26;;;;;;;;;;;10.60;60.80;;;;;;4994660;28;84395;-42
2023/10/19 03:34:59;;;;;;;;;;;10.60;60.90;;;;;;4995444;28;82133;-42
2023/10/19 03:37:25;;;;;;;;;;;10.60;60.70;;;;;;4998063;28;83804;-42
2023/10/19 03:39:51;;;;;;;;;;;10.60;60.80;;;;;;4997896;28;82884;-42
2023/10/19 03:42:17;;;;;;;;;;;10.60;60.70;;;;;;4995007;28;81929;-42
2023/10/19 03:47:11;;;;;;;;;;;10.50;60.80;;;;;;4995642;28;82251;-42
2023/10/19 03:49:39;;;;;;;;;;;10.50;60.80;;;;;;4996408;28;83845;-42
2023/10/19 03:52:30;;;;;;;;;;;10.50;60.80;;;;;;4996519;28;82904;-43
2023/10/19 03:54:50;;;;;;;;;;;10.50;60.90;;;;;;4996686;28;83900;-44
2023/10/19 03:57:22;;;;;;;;;;;10.50;60.80;;;;;;4995701;28;82138;-42
2023/10/19 03:59:57;;;;;;;;;;;10.50;60.70;;;;;;5000857;28;82953;-42
2023/10/19 04:02:35;;;;;;;;;;;10.60;60.90;;;;;;4995985;28;82964;-42
2023/10/19 04:05:01;;;;;;;;;;;10.50;61.30;;;;;;4993702;28;84269;-42
2023/10/19 04:07:30;;;;;;;;;;;10.50;60.60;;;;;;4997300;28;82071;-42
2023/10/19 04:12:37;;;;;;;;;;;10.50;60.70;;;;;;4992909;28;83056;-42
2023/10/19 04:17:36;;;;;;;;;;;10.50;60.60;;;;;;4993348;28;82351;-42
2023/10/19 04:20:09;;;;;;;;;;;10.50;60.60;;;;;;4994922;28;83830;-42
2023/10/19 04:22:35;;;;;;;;;;;10.50;60.80;;;;;;4998006;28;81946;-42
2023/10/19 04:25:01;;;;;;;;;;;10.50;60.70;;;;;;4996360;28;82804;-42
2023/10/19 04:27:26;;;;;;;;;;;10.50;60.70;;;;;;4995425;28;83149;-43
2023/10/19 04:29:52;;;;;;;;;;;10.50;60.70;;;;;;4994947;28;84699;-42
2023/10/19 04:32:27;;;;;;;;;;;10.50;60.60;;;;;;4997241;28;82605;-43
2023/10/19 04:34:52;;;;;;;;;;;10.50;60.70;;;;;;4995038;28;82003;-43
2023/10/19 04:37:18;;;;;;;;;;;10.50;60.70;;;;;;4996405;28;82243;-42
2023/10/19 04:39:44;;;;;;;;;;;10.50;60.90;;;;;;4995782;28;83444;-42
2023/10/19 04:42:10;;;;;;;;;;;10.50;60.90;;;;;;4997886;28;82702;-42
2023/10/19 04:44:35;;;;;;;;;;;10.50;60.70;;;;;;4997446;28;82525;-42
2023/10/19 04:47:01;;;;;;;;;;;10.50;60.70;;;;;;4994079;28;82149;-42
2023/10/19 04:49:28;;;;;;;;;;;10.50;60.60;;;;;;4997582;28;81933;-42
2023/10/19 04:51:53;;;;;;;;;;;10.50;60.70;;;;;;4993559;28;84241;-42
2023/10/19 04:54:19;;;;;;;;;;;10.40;60.80;;;;;;4993521;28;82582;-42
2023/10/19 04:56:44;;;;;;;;;;;10.40;60.80;;;;;;4996019;28;82311;-42
2023/10/19 04:59:10;;;;;;;;;;;10.40;60.80;;;;;;4994313;28;84647;-42
2023/10/19 05:01:37;;;;;;;;;;;10.40;60.70;;;;;;4993094;28;82500;-43
2023/10/19 05:04:02;;;;;;;;;;;10.40;60.80;;;;;;4997203;28;83884;-42
2023/10/19 05:06:28;;;;;;;;;;;10.40;60.70;;;;;;4996310;28;82058;-42
2023/10/19 05:08:54;;;;;;;;;;;10.40;60.80;;;;;;4995181;28;81441;-42
2023/10/19 05:11:19;;;;;;;;;;;10.40;60.70;;;;;;4995452;28;83528;-42
2023/10/19 05:13:45;;;;;;;;;;;10.40;60.80;;;;;;4995796;28;82039;-42
2023/10/19 05:16:10;;;;;;;;;;;10.40;60.80;;;;;;4994395;28;83494;-42
2023/10/19 05:18:36;;;;;;;;;;;10.40;60.80;;;;;;4996499;28;82841;-43
2023/10/19 05:21:01;;;;;;;;;;;10.40;60.80;;;;;;4993708;28;82469;-42
2023/10/19 05:23:30;;;;;;;;;;;10.40;60.80;;;;;;4996948;28;82434;-42
2023/10/19 05:26:03;;;;;;;;;;;10.40;60.70;;;;;;4996993;28;83307;-44
2023/10/19 05:28:28;;;;;;;;;;;10.40;60.60;;;;;;4994836;28;82813;-42
2023/10/19 05:30:54;;;;;;;;;;;10.40;60.70;;;;;;4999950;28;83196;-42
2023/10/19 05:33:23;;;;;;;;;;;10.40;60.80;;;;;;4997188;28;81437;-42
2023/10/19 05:35:49;;;;;;;;;;;10.40;60.80;;;;;;4999359;28;83320;-42
2023/10/19 05:38:15;;;;;;;;;;;10.40;60.80;;;;;;4998186;28;82853;-42
2023/10/19 05:40:42;;;;;;;;;;;10.40;60.90;;;;;;4997551;28;82920;-42
2023/10/19 05:43:08;;;;;;;;;;;10.30;60.80;;;;;;4999345;28;83884;-42
2023/10/19 05:45:36;;;;;;;;;;;10.40;60.90;;;;;;4996778;28;83117;-43
2023/10/19 05:48:03;;;;;;;;;;;10.40;60.80;;;;;;4999394;28;82117;-42
2023/10/19 05:50:29;;;;;;;;;;;10.40;60.80;;;;;;4998315;28;83210;-43
2023/10/19 05:52:54;;;;;;;;;;;10.40;60.70;;;;;;4998318;28;82065;-42
2023/10/19 05:55:21;;;;;;;;;;;10.40;60.80;;;;;;4998216;28;82207;-42
2023/10/19 05:57:47;;;;;;;;;;;10.40;60.70;;;;;;4999286;28;82211;-42
2023/10/19 06:00:13;;;;;;;;;;;10.40;60.70;;;;;;4996745;28;82347;-42
2023/10/19 06:02:39;;;;;;;;;;;10.40;60.80;;;;;;5000115;28;82425;-42
2023/10/19 06:05:05;;;;;;;;;;;10.40;60.70;;;;;;4996212;28;84858;-41
2023/10/19 06:07:31;;;;;;;;;;;10.40;60.70;;;;;;4998518;28;82248;-42
2023/10/19 06:09:56;;;;;;;;;;;10.40;60.60;;;;;;5000630;28;82445;-42
2023/10/19 06:12:22;;;;;;;;;;;10.40;60.70;;;;;;4997563;28;82126;-42
2023/10/19 06:14:47;;;;;;;;;;;10.40;60.70;;;;;;4999285;28;82411;-42
2023/10/19 06:17:18;;;;;;;;;;;10.40;60.70;;;;;;4996391;28;83506;-42
2023/10/19 06:19:45;;;;;;;;;;;10.40;60.80;;;;;;4996760;28;82014;-43
2023/10/19 06:22:12;;;;;;;;;;;10.30;60.90;;;;;;4998919;28;81389;-42
2023/10/19 06:24:37;;;;;;;;;;;10.30;60.80;;;;;;4998040;28;82947;-42
2023/10/19 06:27:03;;;;;;;;;;;10.40;60.90;;;;;;4997101;28;82479;-42
2023/10/19 06:29:29;;;;;;;;;;;10.30;60.80;;;;;;4998424;28;84114;-42
2023/10/19 06:31:55;;;;;;;;;;;10.30;60.80;;;;;;4998683;28;82849;-43
2023/10/19 06:34:20;;;;;;;;;;;10.30;60.80;;;;;;4999567;28;83195;-42
2023/10/19 06:36:46;;;;;;;;;;;10.40;60.90;;;;;;4996515;28;83454;-42
2023/10/19 06:39:13;;;;;;;;;;;10.40;60.60;;;;;;4998331;28;82155;-42
2023/10/19 06:41:39;;;;;;;;;;;10.40;60.80;;;;;;4997125;28;83886;-42
2023/10/19 06:44:05;;;;;;;;;;;10.40;60.80;;;;;;4996606;28;82936;-43
2023/10/19 06:46:31;;;;;;;;;;;10.40;60.70;;;;;;4999428;28;81402;-42
2023/10/19 06:49:00;;;;;;;;;;;10.40;60.70;;;;;;4995431;28;83079;-42
2023/10/19 06:51:26;;;;;;;;;;;10.40;60.90;;;;;;4999985;28;84734;-42
2023/10/19 06:53:52;;;;;;;;;;;10.40;60.80;;;;;;4996360;28;82875;-42
2023/10/19 06:56:18;;;;;;;;;;;10.40;60.70;;;;;;4996850;28;82165;-42
2023/10/19 06:58:44;;;;;;;;;;;10.50;60.80;;;;;;4997001;28;82568;-42
2023/10/19 07:01:10;;;;;;;;;;;10.50;60.90;;;;;;4995938;28;82563;-42
2023/10/19 07:03:36;;;;;;;;;;;10.50;60.70;;;;;;4998748;28;81992;-42
2023/10/19 07:06:02;;;;;;;;;;;10.50;60.70;;;;;;4996112;28;81918;-42
2023/10/19 07:08:28;;;;;;;;;;;10.40;60.80;;;;;;4997454;28;83678;-43
2023/10/19 07:10:54;;;;;;;;;;;10.50;60.90;;;;;;4997277;28;82098;-42
2023/10/19 07:13:21;;;;;;;;;;;10.50;60.90;;;;;;4999156;28;82013;-42
2023/10/19 07:15:48;;;;;;;;;;;10.40;60.90;;;;;;4998040;28;84256;-42
2023/10/19 07:18:14;;;;;;;;;;;10.50;61.00;;;;;;4994475;28;83092;-43
2023/10/19 07:20:42;;;;;;;;;;;10.50;60.90;;;;;;4998260;28;83309;-42
2023/10/19 07:23:21;;;;;;;;;;;10.50;61.00;;;;;;4996129;28;84654;-42
2023/10/19 07:25:54;;;;;;;;;;;10.50;60.90;;;;;;4996685;28;82396;-43
2023/10/19 07:28:20;;;;;;;;;;;10.50;61.40;;;;;;4996334;28;83938;-42
2023/10/19 07:30:46;;;;;;;;;;;10.50;60.60;;;;;;4996351;28;84414;-42
2023/10/19 07:33:18;;;;;;;;;;;10.60;60.90;;;;;;4997328;28;82123;-42
2023/10/19 07:35:46;;;;;;;;;;;10.60;60.80;;;;;;4998251;28;82535;-42
2023/10/19 07:38:13;;;;;;;;;;;10.50;61.20;;;;;;4997096;28;82046;-42
2023/10/19 07:40:38;;;;;;;;;;;10.50;61.40;;;;;;4996317;28;84236;-42
2023/10/19 07:43:04;;;;;;;;;;;10.50;60.90;;;;;;4995364;28;83921;-42
2023/10/19 07:45:31;;;;;;;;;;;10.50;61.20;;;;;;4997117;28;82048;-42
2023/10/19 07:47:57;;;;;;;;;;;10.50;61.40;;;;;;4994735;28;84133;-42
2023/10/19 07:50:22;;;;;;;;;;;10.50;61.50;;;;;;4997814;28;82921;-42
2023/10/19 07:52:50;;;;;;;;;;;10.50;61.70;;;;;;4993906;28;81986;-42
2023/10/19 07:55:16;;;;;;;;;;;10.50;61.40;;;;;;4996959;28;82531;-43
2023/10/19 07:57:42;;;;;;;;;;;10.50;61.50;;;;;;4999212;28;82888;-42
2023/10/19 08:00:08;;;;;;;;;;;10.50;61.10;;;;;;4995765;28;82277;-42
2023/10/19 08:02:34;;;;;;;;;;;10.50;61.80;;;;;;4997609;28;82908;-42
2023/10/19 08:05:02;;;;;;;;;;;10.50;61.60;;;;;;4994400;28;82137;-42
2023/10/19 08:07:28;;;;;;;;;;;10.50;61.80;;;;;;4996115;28;84045;-42
2023/10/19 08:09:54;;;;;;;;;;;10.40;61.40;;;;;;4995776;28;83075;-42
2023/10/19 08:12:22;;;;;;;;;;;10.50;61.80;;;;;;4996056;28;81906;-42
2023/10/19 08:14:48;;;;;;;;;;;10.50;61.40;;;;;;4996847;28;84083;-42
2023/10/19 08:17:14;;;;;;;;;;;10.50;61.40;;;;;;4994602;28;82978;-42
2023/10/19 08:19:40;;;;;;;;;;;10.50;61.90;;;;;;5000658;28;82264;-42
2023/10/19 08:22:05;;;;;;;;;;;10.50;61.60;;;;;;4994649;28;82991;-43
2023/10/19 08:24:34;;;;;;;;;;;10.60;61.60;;;;;;4997250;28;81375;-42
2023/10/19 08:27:00;;;;;;;;;;;10.50;61.40;;;;;;4996119;28;83086;-42
2023/10/19 08:29:26;;;;;;;;;;;10.50;61.50;;;;;;4995226;28;83116;-44
2023/10/19 08:31:52;;;;;;;;;;;10.50;61.80;;;;;;4996652;28;83013;-42
2023/10/19 08:34:19;;;;;;;;;;;10.50;61.80;;;;;;4993879;28;84247;-42
2023/10/19 08:36:44;;;;;;;;;;;10.40;61.60;;;;;;4996479;28;83691;-42
2023/10/19 08:39:12;;;;;;;;;;;10.50;61.60;;;;;;4994844;28;82124;-42
2023/10/19 08:41:39;;;;;;;;;;;10.40;61.70;;;;;;4998007;28;82088;-43
2023/10/19 08:44:10;;;;;;;;;;;10.50;62.00;;;;;;4996488;28;82025;-42
2023/10/19 08:46:47;;;;;;;;;;;10.50;61.90;;;;;;4993721;28;84083;-42
2023/10/19 08:49:15;;;;;;;;;;;10.40;61.70;;;;;;4995785;28;83856;-42
2023/10/19 08:51:45;;;;;;;;;;;10.50;61.90;;;;;;4996747;28;82123;-43
2023/10/19 08:54:14;;;;;;;;;;;10.40;61.80;;;;;;4991967;28;83825;-42
2023/10/19 08:56:41;;;;;;;;;;;10.40;62.00;;;;;;4991145;28;84180;-42
2023/10/19 08:59:07;;;;;;;;;;;10.40;62.10;;;;;;4995576;28;82068;-42
2023/10/19 09:01:35;;;;;;;;;;;10.40;62.00;;;;;;4997251;28;82349;-42
2023/10/19 09:04:01;;;;;;;;;;;10.40;62.10;;;;;;4996423;28;82150;-42
2023/10/19 09:06:28;;;;;;;;;;;10.40;62.00;;;;;;4993621;28;82359;-42
2023/10/19 09:08:54;;;;;;;;;;;10.40;62.20;;;;;;4995599;28;83308;-42
2023/10/19 09:11:20;;;;;;;;;;;10.40;62.10;;;;;;4994853;28;81986;-42
2023/10/19 09:13:50;;;;;;;;;;;10.40;62.30;;;;;;4995511;28;83901;-42
2023/10/19 09:16:16;;;;;;;;;;;10.50;62.20;;;;;;4996567;28;84251;-42
2023/10/19 09:18:42;;;;;;;;;;;10.50;62.30;;;;;;4993104;28;82092;-42
2023/10/19 09:21:07;;;;;;;;;;;10.50;62.20;;;;;;4993039;28;83813;-42
2023/10/19 09:23:36;;;;;;;;;;;10.50;62.30;;;;;;4998482;28;82229;-42
2023/10/19 09:26:07;;;;;;;;;;;10.50;62.40;;;;;;4995008;28;81979;-42
2023/10/19 09:28:36;;;;;;;;;;;10.50;62.40;;;;;;4993801;28;83137;-43
2023/10/19 09:31:03;;;;;;;;;;;10.50;62.70;;;;;;4993798;28;82409;-43
2023/10/19 09:33:29;;;;;;;;;;;10.60;63.20;;;;;;4995819;28;82281;-43
2023/10/19 09:35:59;;;;;;;;;;;10.60;62.70;;;;;;4994066;28;84365;-43
2023/10/19 09:38:26;;;;;;;;;;;10.60;62.90;;;;;;4994326;28;81202;-42
2023/10/19 09:40:54;;;;;;;;;;;10.70;62.90;;;;;;4995955;28;82978;-42
2023/10/19 09:43:24;;;;;;;;;;;10.70;62.90;;;;;;4992953;28;84193;-42
2023/10/19 09:45:53;;;;;;;;;;;10.70;63.30;;;;;;4996974;28;83372;-43
2023/10/19 09:48:19;;;;;;;;;;;10.70;63.10;;;;;;4994936;28;84470;-42
2023/10/19 09:50:55;;;;;;;;;;;10.70;63.50;;;;;;4993229;28;82044;-42
2023/10/19 09:53:27;;;;;;;;;;;10.70;63.60;;;;;;4994426;28;82552;-44
2023/10/19 09:55:59;;;;;;;;;;;10.70;63.90;;;;;;4994273;28;82917;-42
2023/10/19 09:58:31;;;;;;;;;;;10.70;63.40;;;;;;4996232;28;82126;-42
2023/10/19 10:01:02;;;;;;;;;;;10.70;64.20;;;;;;4994498;28;82358;-42
2023/10/19 10:03:48;;;;;;;;;;;10.80;63.90;;;;;;4994422;28;81254;-42
2023/10/19 10:06:15;;;;;;;;;;;10.80;64.00;;;;;;4995124;28;82310;-42
2023/10/19 10:08:44;;;;;;;;;;;10.80;64.20;;;;;;4995808;28;83901;-42
2023/10/19 10:11:17;;;;;;;;;;;10.90;64.30;;;;;;4995664;28;83242;-42
2023/10/19 10:13:45;;;;;;;;;;;10.90;64.30;;;;;;4993800;28;84900;-42
2023/10/19 10:16:13;;;;;;;;;;;10.90;64.10;;;;;;4995245;28;82778;-43
2023/10/19 10:18:40;;;;;;;;;;;10.90;64.20;;;;;;4997962;28;82106;-43
2023/10/19 10:21:08;;;;;;;;;;;10.90;64.30;;;;;;4995320;28;82037;-42
2023/10/19 10:23:39;;;;;;;;;;;11.00;64.50;;;;;;4996519;28;83584;-43
2023/10/19 10:26:08;;;;;;;;;;;11.00;64.30;;;;;;4997244;28;81931;-42
2023/10/19 10:28:33;;;;;;;;;;;11.00;64.60;;;;;;4999148;28;84051;-42
2023/10/19 10:31:17;;;;;;;;;;;11.00;64.50;;;;;;4998053;28;83562;-42
2023/10/19 10:33:47;;;;;;;;;;;11.00;64.60;;;;;;4996475;28;82555;-42
2023/10/19 10:36:19;;;;;;;;;;;11.00;64.40;;;;;;4998375;28;85172;-44
2023/10/19 10:38:50;;;;;;;;;;;11.00;64.20;;;;;;4997130;28;82060;-42
2023/10/19 10:41:20;;;;;;;;;;;11.10;64.50;;;;;;4996067;28;83773;-42
2023/10/19 10:43:53;;;;;;;;;;;11.10;64.40;;;;;;4999162;28;83157;-42
2023/10/19 10:46:22;;;;;;;;;;;11.00;64.50;;;;;;4996725;28;82052;-43
2023/10/19 10:48:48;;;;;;;;;;;11.10;64.60;;;;;;4996733;28;82505;-42
2023/10/19 10:51:21;;;;;;;;;;;11.10;64.60;;;;;;4997659;28;84383;-42
2023/10/19 10:53:51;;;;;;;;;;;11.10;64.70;;;;;;4998960;28;81281;-42
2023/10/19 10:56:17;;;;;;;;;;;11.20;64.60;;;;;;4996705;28;84410;-42
2023/10/19 10:58:43;;;;;;;;;;;11.20;64.40;;;;;;4997857;28;82359;-42
2023/10/19 11:01:10;;;;;;;;;;;11.20;64.70;;;;;;4995172;28;83036;-42
2023/10/19 11:03:36;;;;;;;;;;;11.20;64.80;;;;;;4998917;28;82958;-42
2023/10/19 11:06:08;;;;;;;;;;;11.20;64.90;;;;;;4995721;28;82130;-42
2023/10/19 11:08:34;;;;;;;;;;;11.20;64.70;;;;;;4996929;28;82442;-42
2023/10/19 11:11:05;;;;;;;;;;;11.20;64.80;;;;;;4997459;28;82165;-42
2023/10/19 11:13:33;;;;;;;;;;;11.20;65.00;;;;;;4997938;28;82282;-42
2023/10/19 11:16:00;;;;;;;;;;;11.30;65.00;;;;;;4997878;28;84224;-43
2023/10/19 11:18:39;;;;;;;;;;;11.30;65.10;;;;;;4997128;28;81312;-42
2023/10/19 11:21:12;;;;;;;;;;;11.30;64.80;;;;;;4994831;28;81930;-43
2023/10/19 11:23:42;;;;;;;;;;;11.30;65.20;;;;;;4996717;28;81976;-42
2023/10/19 11:26:09;;;;;;;;;;;11.30;65.00;;;;;;4996239;28;83079;-42
2023/10/19 11:28:38;;;;;;;;;;;11.30;65.40;;;;;;4994787;28;83317;-42
2023/10/19 11:31:14;;;;;;;;;;;11.30;65.30;;;;;;4995161;28;83115;-43
2023/10/19 11:33:43;;;;;;;;;;;11.30;65.30;;;;;;4996082;28;82053;-42
2023/10/19 11:36:12;;;;;;;;;;;11.40;65.30;;;;;;5000800;28;82004;-42
2023/10/19 11:38:47;;;;;;;;;;;11.40;65.40;;;;;;4995037;28;82038;-42
2023/10/19 11:41:13;;;;;;;;;;;11.40;65.50;;;;;;4996194;28;83030;-42
2023/10/19 11:43:42;;;;;;;;;;;11.40;65.40;;;;;;4998160;28;82330;-43
2023/10/19 11:46:08;;;;;;;;;;;11.40;65.30;;;;;;4994792;28;82035;-42
2023/10/19 11:48:35;;;;;;;;;;;11.40;65.20;;;;;;4997345;28;84152;-42
2023/10/19 11:51:03;;;;;;;;;;;11.40;65.50;;;;;;4994093;28;85471;-43
2023/10/19 11:53:33;;;;;;;;;;;11.50;65.50;;;;;;4995500;28;82028;-42
2023/10/19 11:56:00;;;;;;;;;;;11.50;65.40;;;;;;4997734;28;82375;-42
2023/10/19 11:58:26;;;;;;;;;;;11.50;65.50;;;;;;4997209;28;82190;-42
2023/10/19 12:00:51;;;;;;;;;;;11.50;65.40;;;;;;4997722;28;82067;-42
2023/10/19 12:03:18;;;;;;;;;;;11.50;65.60;;;;;;4995023;28;82335;-42
2023/10/19 12:05:44;;;;;;;;;;;11.50;65.50;;;;;;4995879;28;82102;-42
2023/10/19 12:08:09;;;;;;;;;;;11.50;65.50;;;;;;4996644;28;83058;-43
2023/10/19 12:10:38;;;;;;;;;;;11.60;65.50;;;;;;4994240;28;83163;-42
2023/10/19 12:13:08;;;;;;;;;;;11.60;65.60;;;;;;4997385;28;82068;-42
2023/10/19 12:15:33;;;;;;;;;;;11.60;65.70;;;;;;4994572;28;82872;-42
2023/10/19 12:17:59;;;;;;;;;;;11.60;65.60;;;;;;4996216;28;83035;-42
2023/10/19 12:20:26;;;;;;;;;;;11.60;65.50;;;;;;4999207;28;82715;-42
2023/10/19 12:22:53;;;;;;;;;;;11.60;66.30;;;;;;4994376;28;84004;-45
2023/10/19 12:25:20;;;;;;;;;;;11.70;65.70;;;;;;4997375;28;82450;-42
2023/10/19 12:27:45;;;;;;;;;;;11.70;65.70;;;;;;4993931;28;83943;-43
2023/10/19 12:30:20;;;;;;;;;;;11.70;65.50;;;;;;4996306;28;82094;-42
2023/10/19 12:32:49;;;;;;;;;;;11.70;65.50;;;;;;4997428;28;81230;-42
2023/10/19 12:35:15;;;;;;;;;;;11.70;65.80;;;;;;4993909;28;83105;-42
2023/10/19 12:37:46;;;;;;;;;;;11.70;65.80;;;;;;4996717;28;84696;-42
2023/10/19 12:40:47;;;;;;;;;;;11.70;65.80;;;;;;4992334;28;83024;-42
2023/10/19 12:43:07;;;;;;;;;;;11.70;65.60;;;;;;4997941;28;84266;-42
2023/10/19 12:45:36;;;;;;;;;;;11.70;65.70;;;;;;4994390;28;82159;-42
2023/10/19 12:48:04;;;;;;;;;;;11.70;65.80;;;;;;4996937;28;82928;-43
2023/10/19 12:50:30;;;;;;;;;;;11.70;65.60;;;;;;4993955;28;84796;-44
2023/10/19 12:52:56;;;;;;;;;;;11.80;65.90;;;;;;4994235;28;82095;-43
2023/10/19 12:55:21;;;;;;;;;;;11.80;65.80;;;;;;4995907;28;82955;-42
2023/10/19 12:57:47;;;;;;;;;;;11.80;66.00;;;;;;4995168;28;82086;-43
2023/10/19 13:03:14;;;;;;;;;;;11.90;65.90;;;;;;4989795;28;83874;-43
2023/10/19 13:05:40;;;;;;;;;;;11.90;65.90;;;;;;4993573;28;83042;-43
2023/10/19 13:08:07;;;;;;;;;;;11.90;65.80;;;;;;4994925;28;84680;-42
2023/10/19 13:10:33;;;;;;;;;;;11.80;65.90;;;;;;4994170;28;86178;-42
2023/10/19 13:13:00;;;;;;;;;;;11.90;65.80;;;;;;4994033;28;82274;-42
2023/10/19 13:15:30;;;;;;;;;;;11.90;65.90;;;;;;4996908;28;84079;-43
2023/10/19 13:17:56;;;;;;;;;;;11.90;65.70;;;;;;4993932;28;84816;-42
2023/10/19 13:20:23;;;;;;;;;;;12.00;65.80;;;;;;4995495;28;82169;-42
2023/10/19 13:22:49;;;;;;;;;;;12.00;65.90;;;;;;4995993;28;84165;-42
2023/10/19 13:25:16;;;;;;;;;;;12.00;66.00;;;;;;4996769;28;82926;-42
2023/10/19 13:27:45;;;;;;;;;;;12.00;65.90;;;;;;4996806;28;83033;-42
2023/10/19 13:30:14;;;;;;;;;;;12.00;66.00;;;;;;4993308;28;83853;-44
2023/10/19 13:32:42;;;;;;;;;;;12.00;66.00;;;;;;4994830;28;82079;-42
2023/10/19 13:35:07;;;;;;;;;;;12.00;65.90;;;;;;4995727;28;82901;-42
2023/10/19 13:37:33;;;;;;;;;;;12.00;65.80;;;;;;4993700;28;82196;-42
2023/10/19 13:40:01;;;;;;;;;;;12.10;65.80;;;;;;4994756;28;82077;-42
2023/10/19 13:42:28;;;;;;;;;;;12.10;65.90;;;;;;4993895;28;83777;-43
2023/10/19 13:44:54;;;;;;;;;;;12.10;66.00;;;;;;4995110;28;84060;-42
2023/10/19 13:47:19;;;;;;;;;;;12.10;65.90;;;;;;4998595;28;81451;-42
2023/10/19 13:49:46;;;;;;;;;;;12.10;66.10;;;;;;4994272;28;82771;-42
2023/10/19 13:52:12;;;;;;;;;;;12.20;66.10;;;;;;4998781;28;82102;-42
2023/10/19 13:54:37;;;;;;;;;;;12.10;66.20;;;;;;4995747;28;82986;-43
2023/10/19 13:57:03;;;;;;;;;;;12.20;66.10;;;;;;4999816;28;82673;-42
2023/10/19 13:59:29;;;;;;;;;;;12.20;66.30;;;;;;4997599;28;82083;-43
2023/10/19 14:01:55;;;;;;;;;;;12.20;66.30;;;;;;4998319;28;83536;-42
2023/10/19 14:04:20;;;;;;;;;;;12.20;66.40;;;;;;4998243;28;83135;-46
2023/10/19 14:06:49;;;;;;;;;;;12.20;66.40;;;;;;4997448;28;82062;-42
2023/10/19 14:09:14;;;;;;;;;;;12.20;66.40;;;;;;5002042;28;82214;-43
2023/10/19 14:11:40;;;;;;;;;;;12.30;66.40;;;;;;4996555;28;81353;-42
2023/10/19 14:14:07;;;;;;;;;;;12.30;66.50;;;;;;4998831;28;81962;-43
2023/10/19 14:16:34;;;;;;;;;;;12.30;66.40;;;;;;4997261;28;82921;-43
2023/10/19 14:18:59;;;;;;;;;;;12.30;66.30;;;;;;4995097;28;83004;-43
2023/10/19 14:21:28;;;;;;;;;;;12.30;66.60;;;;;;4997272;28;82595;-42
2023/10/19 14:23:54;;;;;;;;;;;12.30;66.40;;;;;;4998792;28;83501;-42
2023/10/19 14:26:19;;;;;;;;;;;12.30;66.40;;;;;;4995739;28;82136;-42
2023/10/19 14:28:45;;;;;;;;;;;12.40;66.70;;;;;;4999013;28;82819;-42
2023/10/19 14:31:12;;;;;;;;;;;12.40;66.60;;;;;;5000346;28;83086;-43
2023/10/19 14:33:37;;;;;;;;;;;12.40;66.80;;;;;;4995334;28;84005;-43
2023/10/19 14:36:04;;;;;;;;;;;12.40;66.80;;;;;;4992806;28;83766;-42
2023/10/19 14:38:29;;;;;;;;;;;12.40;66.80;;;;;;4996266;28;82373;-43
2023/10/19 14:40:55;;;;;;;;;;;12.40;66.70;;;;;;4999140;28;82207;-43
2023/10/19 14:43:20;;;;;;;;;;;12.40;67.00;;;;;;4995430;28;83372;-42